createdAt,value
2017-07-22T00:00:05.259Z,76
2017-07-22T00:01:07.686Z,76
2017-07-22T00:02:09.783Z,77
2017-07-22T00:03:11.873Z,77
2017-07-22T00:04:13.964Z,76
2017-07-22T00:05:16.398Z,77
2017-07-22T00:06:18.503Z,76
2017-07-22T00:07:20.588Z,76
2017-07-22T00:08:23.030Z,76
2017-07-22T00:09:25.122Z,76
2017-07-22T00:10:27.212Z,76
2017-07-22T00:11:29.627Z,76
2017-07-22T00:12:31.748Z,76
2017-07-22T00:13:33.849Z,76
2017-07-22T00:14:36.286Z,76
2017-07-22T00:15:39.061Z,76
2017-07-22T00:16:41.500Z,76
2017-07-22T00:17:43.947Z,77
2017-07-22T00:18:46.041Z,77
2017-07-22T00:19:48.470Z,77
2017-07-22T00:20:50.553Z,77
2017-07-22T00:21:52.642Z,77
2017-07-22T00:22:55.098Z,77
2017-07-22T00:23:57.179Z,77
2017-07-22T00:24:59.609Z,77
2017-07-22T00:26:01.707Z,78
2017-07-22T00:27:04.517Z,78
2017-07-22T00:28:06.603Z,78
2017-07-22T00:29:08.700Z,78
2017-07-22T00:30:11.152Z,78
2017-07-22T00:31:13.596Z,78
2017-07-22T00:32:15.672Z,78
2017-07-22T00:33:17.766Z,78
2017-07-22T00:34:19.860Z,78
2017-07-22T00:35:22.293Z,78
2017-07-22T00:36:24.374Z,78
2017-07-22T00:37:26.484Z,78
2017-07-22T00:38:28.562Z,78
2017-07-22T00:39:30.649Z,78
2017-07-22T00:40:33.448Z,78
2017-07-22T00:41:35.855Z,78
2017-07-22T00:42:37.940Z,79
2017-07-22T00:43:40.385Z,79
2017-07-22T00:44:42.470Z,79
2017-07-22T00:45:44.913Z,79
2017-07-22T00:46:46.996Z,79
2017-07-22T00:47:49.109Z,79
2017-07-22T00:48:51.550Z,79
2017-07-22T00:49:53.641Z,79
2017-07-22T00:50:55.734Z,79
2017-07-22T00:51:57.823Z,79
2017-07-22T00:53:00.594Z,79
2017-07-22T00:54:02.678Z,79
2017-07-22T00:55:04.768Z,80
2017-07-22T00:56:06.866Z,80
2017-07-22T00:57:08.947Z,80
2017-07-22T00:58:11.050Z,80
2017-07-22T00:59:13.161Z,80
2017-07-22T01:00:15.254Z,80
2017-07-22T01:01:17.677Z,80
2017-07-22T01:02:19.759Z,80
2017-07-22T01:03:21.867Z,80
2017-07-22T01:04:23.969Z,80
2017-07-22T01:05:26.408Z,80
2017-07-22T01:06:29.195Z,80
2017-07-22T01:07:31.616Z,80
2017-07-22T01:08:33.700Z,80
2017-07-22T01:09:35.783Z,80
2017-07-22T01:10:37.881Z,80
2017-07-22T01:11:39.979Z,80
2017-07-22T01:12:42.383Z,80
2017-07-22T01:13:44.485Z,80
2017-07-22T01:14:46.599Z,81
2017-07-22T01:15:48.702Z,81
2017-07-22T01:16:51.141Z,81
2017-07-22T01:17:53.590Z,81
2017-07-22T01:18:56.381Z,81
2017-07-22T01:19:59.126Z,81
2017-07-22T01:21:01.893Z,81
2017-07-22T01:22:03.983Z,81
2017-07-22T01:23:06.074Z,81
2017-07-22T01:24:08.182Z,82
2017-07-22T01:25:10.262Z,82
2017-07-22T01:26:12.401Z,82
2017-07-22T01:27:14.490Z,82
2017-07-22T01:28:16.587Z,82
2017-07-22T01:29:19.021Z,82
2017-07-22T01:30:21.110Z,82
2017-07-22T01:31:23.198Z,82
2017-07-22T01:32:25.287Z,82
2017-07-22T01:33:27.375Z,82
2017-07-22T01:34:29.795Z,82
2017-07-22T01:35:31.876Z,82
2017-07-22T01:36:33.964Z,82
2017-07-22T01:37:36.381Z,82
2017-07-22T01:38:38.880Z,82
2017-07-22T01:39:40.964Z,82
2017-07-22T01:40:43.054Z,81
2017-07-22T01:41:45.145Z,82
2017-07-22T01:42:47.240Z,82
2017-07-22T01:43:49.333Z,82
2017-07-22T01:44:51.426Z,82
2017-07-22T01:45:53.849Z,82
2017-07-22T01:46:56.274Z,82
2017-07-22T01:47:58.357Z,82
2017-07-22T01:49:00.793Z,82
2017-07-22T01:50:02.889Z,82
2017-07-22T01:51:05.339Z,82
2017-07-22T01:52:07.754Z,82
2017-07-22T01:53:09.864Z,82
2017-07-22T01:54:11.944Z,82
2017-07-22T01:55:14.710Z,82
2017-07-22T01:56:16.792Z,82
2017-07-22T01:57:18.877Z,83
2017-07-22T01:58:21.314Z,83
2017-07-22T01:59:23.418Z,83
2017-07-22T02:00:25.825Z,83
2017-07-22T02:01:27.932Z,83
2017-07-22T02:02:30.007Z,83
2017-07-22T02:03:32.100Z,83
2017-07-22T02:04:34.190Z,83
2017-07-22T02:05:36.277Z,84
2017-07-22T02:06:38.382Z,84
2017-07-22T02:07:40.800Z,84
2017-07-22T02:08:42.896Z,84
2017-07-22T02:09:45.014Z,84
2017-07-22T02:10:47.083Z,84
2017-07-22T02:11:49.531Z,85
2017-07-22T02:12:51.952Z,84
2017-07-22T02:13:54.036Z,84
2017-07-22T02:14:56.127Z,84
2017-07-22T02:15:58.231Z,84
2017-07-22T02:17:00.315Z,84
2017-07-22T02:18:02.406Z,84
2017-07-22T02:19:04.828Z,84
2017-07-22T02:20:07.262Z,84
2017-07-22T02:21:09.372Z,84
2017-07-22T02:22:11.466Z,84
2017-07-22T02:23:13.902Z,84
2017-07-22T02:24:16.337Z,84
2017-07-22T02:25:18.436Z,84
2017-07-22T02:26:20.520Z,84
2017-07-22T02:27:22.623Z,84
2017-07-22T02:28:25.059Z,84
2017-07-22T02:29:27.144Z,84
2017-07-22T02:30:29.576Z,85
2017-07-22T02:31:32.029Z,85
2017-07-22T02:32:34.479Z,84
2017-07-22T02:33:36.568Z,85
2017-07-22T02:34:39.019Z,85
2017-07-22T02:35:41.121Z,85
2017-07-22T02:36:43.897Z,85
2017-07-22T02:37:45.980Z,85
2017-07-22T02:38:48.075Z,85
2017-07-22T02:39:50.176Z,85
2017-07-22T02:40:52.964Z,85
2017-07-22T02:41:55.389Z,85
2017-07-22T02:42:57.508Z,85
2017-07-22T02:44:00.274Z,85
2017-07-22T02:45:03.066Z,85
2017-07-22T02:46:05.499Z,85
2017-07-22T02:47:07.613Z,85
2017-07-22T02:48:10.049Z,85
2017-07-22T02:49:12.146Z,85
2017-07-22T02:50:14.579Z,85
2017-07-22T02:51:16.669Z,85
2017-07-22T02:52:19.120Z,85
2017-07-22T02:53:21.199Z,85
2017-07-22T02:54:23.287Z,85
2017-07-22T02:55:25.383Z,85
2017-07-22T02:56:27.485Z,86
2017-07-22T02:57:29.576Z,86
2017-07-22T02:58:31.678Z,85
2017-07-22T02:59:34.123Z,86
2017-07-22T03:00:36.209Z,86
2017-07-22T03:01:38.286Z,86
2017-07-22T03:02:40.724Z,86
2017-07-22T03:03:42.806Z,86
2017-07-22T03:04:45.234Z,86
2017-07-22T03:05:47.330Z,86
2017-07-22T03:06:49.420Z,86
2017-07-22T03:07:51.862Z,86
2017-07-22T03:08:53.944Z,86
2017-07-22T03:09:56.376Z,86
2017-07-22T03:10:58.813Z,86
2017-07-22T03:12:01.271Z,86
2017-07-22T03:13:04.045Z,86
2017-07-22T03:14:06.476Z,86
2017-07-22T03:15:08.908Z,86
2017-07-22T03:16:11.017Z,86
2017-07-22T03:17:13.108Z,86
2017-07-22T03:18:15.197Z,87
2017-07-22T03:19:17.285Z,87
2017-07-22T03:20:19.721Z,87
2017-07-22T03:21:21.808Z,87
2017-07-22T03:22:24.266Z,87
2017-07-22T03:23:26.361Z,87
2017-07-22T03:24:28.793Z,87
2017-07-22T03:25:30.872Z,87
2017-07-22T03:26:33.288Z,87
2017-07-22T03:27:35.391Z,87
2017-07-22T03:28:37.473Z,87
2017-07-22T03:29:39.590Z,87
2017-07-22T03:30:42.033Z,87
2017-07-22T03:31:44.124Z,88
2017-07-22T03:32:46.566Z,88
2017-07-22T03:33:49.348Z,88
2017-07-22T03:34:51.423Z,88
2017-07-22T03:35:53.857Z,88
2017-07-22T03:36:56.306Z,88
2017-07-22T03:37:59.099Z,88
2017-07-22T03:39:01.543Z,88
2017-07-22T03:40:03.640Z,89
2017-07-22T03:41:05.738Z,89
2017-07-22T03:42:07.816Z,89
2017-07-22T03:43:10.247Z,89
2017-07-22T03:44:12.353Z,89
2017-07-22T03:45:14.455Z,89
2017-07-22T03:46:16.543Z,89
2017-07-22T03:47:18.977Z,89
2017-07-22T03:48:21.065Z,89
2017-07-22T03:49:23.501Z,89
2017-07-22T03:50:25.952Z,89
2017-07-22T03:51:28.390Z,89
2017-07-22T03:52:30.479Z,89
2017-07-22T03:53:32.908Z,89
2017-07-22T03:54:35.336Z,89
2017-07-22T03:55:38.155Z,90
2017-07-22T03:56:40.564Z,90
2017-07-22T03:57:42.664Z,90
2017-07-22T03:58:45.108Z,90
2017-07-22T03:59:47.196Z,89
2017-07-22T04:00:49.289Z,89
2017-07-22T04:01:51.376Z,89
2017-07-22T04:02:53.830Z,90
2017-07-22T04:03:55.933Z,90
2017-07-22T04:04:58.017Z,90
2017-07-22T04:06:00.451Z,89
2017-07-22T04:07:02.924Z,89
2017-07-22T04:08:05.037Z,89
2017-07-22T04:09:07.130Z,89
2017-07-22T04:10:09.556Z,89
2017-07-22T04:11:11.995Z,89
2017-07-22T04:12:14.077Z,89
2017-07-22T04:13:16.182Z,89
2017-07-22T04:14:18.631Z,89
2017-07-22T04:15:21.053Z,89
2017-07-22T04:16:23.153Z,89
2017-07-22T04:17:25.908Z,89
2017-07-22T04:18:27.996Z,89
2017-07-22T04:19:30.422Z,89
2017-07-22T04:20:32.854Z,89
2017-07-22T04:21:34.950Z,89
2017-07-22T04:22:37.034Z,89
2017-07-22T04:23:39.498Z,89
2017-07-22T04:24:41.929Z,89
2017-07-22T04:25:44.015Z,89
2017-07-22T04:26:46.119Z,89
2017-07-22T04:27:48.558Z,89
2017-07-22T04:28:50.986Z,89
2017-07-22T04:29:53.060Z,89
2017-07-22T04:30:55.165Z,89
2017-07-22T04:31:57.602Z,89
2017-07-22T04:33:00.381Z,89
2017-07-22T04:34:02.827Z,89
2017-07-22T04:35:05.273Z,89
2017-07-22T04:36:08.034Z,88
2017-07-22T04:37:10.104Z,88
2017-07-22T04:38:12.525Z,88
2017-07-22T04:39:14.642Z,88
2017-07-22T04:40:16.728Z,88
2017-07-22T04:41:18.816Z,88
2017-07-22T04:42:21.258Z,88
2017-07-22T04:43:23.354Z,88
2017-07-22T04:44:25.796Z,88
2017-07-22T04:45:27.886Z,88
2017-07-22T04:46:29.982Z,88
2017-07-22T04:47:32.075Z,88
2017-07-22T04:48:34.180Z,88
2017-07-22T04:49:36.292Z,88
2017-07-22T04:50:38.394Z,88
2017-07-22T04:51:40.830Z,88
2017-07-22T04:52:42.921Z,88
2017-07-22T04:53:45.045Z,88
2017-07-22T04:54:47.158Z,88
2017-07-22T04:55:49.252Z,88
2017-07-22T04:56:51.370Z,88
2017-07-22T04:57:53.486Z,88
2017-07-22T04:58:55.591Z,88
2017-07-22T04:59:58.040Z,88
2017-07-22T05:01:00.842Z,88
2017-07-22T05:02:02.958Z,88
2017-07-22T05:03:05.409Z,88
2017-07-22T05:04:07.507Z,88
2017-07-22T05:05:09.989Z,88
2017-07-22T05:06:12.108Z,88
2017-07-22T05:07:14.213Z,88
2017-07-22T05:08:16.329Z,88
2017-07-22T05:09:18.422Z,88
2017-07-22T05:10:20.883Z,88
2017-07-22T05:11:22.978Z,88
2017-07-22T05:12:25.089Z,88
2017-07-22T05:13:27.206Z,88
2017-07-22T05:14:29.650Z,88
2017-07-22T05:15:31.755Z,87
2017-07-22T05:16:34.200Z,87
2017-07-22T05:17:36.326Z,88
2017-07-22T05:18:38.444Z,88
2017-07-22T05:19:40.535Z,88
2017-07-22T05:20:42.642Z,88
2017-07-22T05:21:44.776Z,88
2017-07-22T05:22:46.869Z,88
2017-07-22T05:23:48.964Z,88
2017-07-22T05:24:51.083Z,88
2017-07-22T05:25:53.536Z,87
2017-07-22T05:26:55.648Z,87
2017-07-22T05:27:57.761Z,87
2017-07-22T05:29:00.200Z,87
2017-07-22T05:30:02.674Z,87
2017-07-22T05:31:05.120Z,87
2017-07-22T05:32:07.243Z,87
2017-07-22T05:33:09.392Z,87
2017-07-22T05:34:11.653Z,87
2017-07-22T05:35:14.148Z,87
2017-07-22T05:36:16.629Z,86
2017-07-22T05:37:18.742Z,86
2017-07-22T05:38:21.202Z,86
2017-07-22T05:39:23.298Z,86
2017-07-22T05:40:25.760Z,86
2017-07-22T05:41:27.858Z,86
2017-07-22T05:42:29.969Z,86
2017-07-22T05:43:32.085Z,85
2017-07-22T05:44:34.184Z,86
2017-07-22T05:45:36.302Z,85
2017-07-22T05:46:38.816Z,85
2017-07-22T05:47:41.252Z,85
2017-07-22T05:48:43.355Z,85
2017-07-22T05:49:45.479Z,85
2017-07-22T05:50:47.576Z,85
2017-07-22T05:51:49.697Z,85
2017-07-22T05:52:51.799Z,85
2017-07-22T05:53:53.944Z,84
2017-07-22T05:54:56.405Z,84
2017-07-22T05:55:58.514Z,84
2017-07-22T05:57:00.624Z,84
2017-07-22T05:58:02.739Z,84
2017-07-22T05:59:04.850Z,84
2017-07-22T06:00:06.974Z,84
2017-07-22T06:01:09.075Z,84
2017-07-22T06:02:11.560Z,84
2017-07-22T06:03:13.655Z,84
2017-07-22T06:04:15.751Z,84
2017-07-22T06:05:18.215Z,84
2017-07-22T06:06:20.325Z,84
2017-07-22T06:07:22.416Z,84
2017-07-22T06:08:24.520Z,83
2017-07-22T06:09:26.650Z,83
2017-07-22T06:10:28.766Z,84
2017-07-22T06:11:31.219Z,83
2017-07-22T06:12:33.334Z,83
2017-07-22T06:13:35.429Z,83
2017-07-22T06:14:37.545Z,83
2017-07-22T06:15:39.661Z,83
2017-07-22T06:16:41.775Z,83
2017-07-22T06:17:43.886Z,83
2017-07-22T06:18:45.978Z,83
2017-07-22T06:19:48.101Z,83
2017-07-22T06:20:50.215Z,83
2017-07-22T06:21:52.654Z,83
2017-07-22T06:22:55.090Z,83
2017-07-22T06:23:57.199Z,83
2017-07-22T06:24:59.312Z,83
2017-07-22T06:26:02.759Z,83
2017-07-22T06:27:04.853Z,83
2017-07-22T06:28:06.973Z,83
2017-07-22T06:29:09.078Z,83
2017-07-22T06:30:11.189Z,83
2017-07-22T06:31:13.299Z,83
2017-07-22T06:32:15.417Z,83
2017-07-22T06:33:17.525Z,83
2017-07-22T06:34:19.646Z,82
2017-07-22T06:35:21.753Z,82
2017-07-22T06:36:23.867Z,82
2017-07-22T06:37:26.000Z,82
2017-07-22T06:38:28.100Z,82
2017-07-22T06:39:30.207Z,82
2017-07-22T06:40:32.314Z,82
2017-07-22T06:41:34.410Z,82
2017-07-22T06:42:37.560Z,82
2017-07-22T06:43:39.654Z,82
2017-07-22T06:44:42.101Z,81
2017-07-22T06:45:44.225Z,81
2017-07-22T06:46:46.679Z,81
2017-07-22T06:47:48.782Z,81
2017-07-22T06:48:50.882Z,81
2017-07-22T06:49:52.995Z,81
2017-07-22T06:50:55.807Z,81
2017-07-22T06:51:58.238Z,80
2017-07-22T06:53:00.680Z,81
2017-07-22T06:54:03.117Z,80
2017-07-22T06:55:06.269Z,80
2017-07-22T06:56:08.806Z,80
2017-07-22T06:57:11.262Z,80
2017-07-22T06:58:13.705Z,80
2017-07-22T06:59:16.130Z,79
2017-07-22T07:00:18.244Z,79
2017-07-22T07:01:20.362Z,79
2017-07-22T07:02:22.477Z,79
2017-07-22T07:03:24.914Z,79
2017-07-22T07:04:27.702Z,78
2017-07-22T07:05:29.813Z,78
2017-07-22T07:06:31.907Z,78
2017-07-22T07:07:34.014Z,78
2017-07-22T07:08:36.481Z,78
2017-07-22T07:09:38.922Z,78
2017-07-22T07:10:41.369Z,78
2017-07-22T07:11:43.466Z,77
2017-07-22T07:12:45.562Z,78
2017-07-22T07:13:47.670Z,77
2017-07-22T07:14:49.765Z,77
2017-07-22T07:15:51.882Z,77
2017-07-22T07:16:53.987Z,77
2017-07-22T07:17:56.448Z,76
2017-07-22T07:18:58.580Z,76
2017-07-22T07:20:00.717Z,76
2017-07-22T07:21:02.860Z,75
2017-07-22T07:22:04.970Z,75
2017-07-22T07:23:07.417Z,75
2017-07-22T07:24:09.536Z,75
2017-07-22T07:25:11.964Z,74
2017-07-22T07:26:14.076Z,74
2017-07-22T07:27:16.185Z,75
2017-07-22T07:28:18.291Z,75
2017-07-22T07:29:20.395Z,75
2017-07-22T07:30:22.501Z,75
2017-07-22T07:31:24.630Z,74
2017-07-22T07:32:26.746Z,74
2017-07-22T07:33:28.838Z,74
2017-07-22T07:34:30.953Z,73
2017-07-22T07:35:33.046Z,73
2017-07-22T07:36:35.156Z,72
2017-07-22T07:37:37.254Z,73
2017-07-22T07:38:39.708Z,72
2017-07-22T07:39:41.840Z,72
2017-07-22T07:40:44.622Z,72
2017-07-22T07:41:46.713Z,73
2017-07-22T07:42:48.828Z,72
2017-07-22T07:43:51.294Z,71
2017-07-22T07:44:53.729Z,71
2017-07-22T07:45:55.863Z,71
2017-07-22T07:46:57.970Z,71
2017-07-22T07:48:00.430Z,71
2017-07-22T07:49:02.867Z,70
2017-07-22T07:50:06.006Z,70
2017-07-22T07:51:08.464Z,71
2017-07-22T07:52:10.898Z,70
2017-07-22T07:53:13.354Z,70
2017-07-22T07:54:15.450Z,71
2017-07-22T07:55:18.238Z,71
2017-07-22T07:56:20.370Z,71
2017-07-22T07:57:22.484Z,70
2017-07-22T07:58:24.580Z,70
2017-07-22T07:59:26.685Z,70
2017-07-22T08:00:28.811Z,70
2017-07-22T08:01:30.915Z,70
2017-07-22T08:02:33.373Z,70
2017-07-22T08:03:35.811Z,70
2017-07-22T08:04:37.925Z,70
2017-07-22T08:05:40.040Z,69
2017-07-22T08:06:42.149Z,69
2017-07-22T08:07:44.620Z,69
2017-07-22T08:08:46.723Z,70
2017-07-22T08:09:48.826Z,69
2017-07-22T08:10:50.939Z,71
2017-07-22T08:11:53.077Z,70
2017-07-22T08:12:55.175Z,71
2017-07-22T08:13:57.272Z,70
2017-07-22T08:14:59.392Z,69
2017-07-22T08:16:01.516Z,69
2017-07-22T08:17:03.628Z,68
2017-07-22T08:18:05.734Z,69
2017-07-22T08:19:07.835Z,68
2017-07-22T08:20:09.962Z,68
2017-07-22T08:21:12.084Z,67
2017-07-22T08:22:14.197Z,67
2017-07-22T08:23:16.311Z,68
2017-07-22T08:24:19.091Z,69
2017-07-22T08:25:21.207Z,69
2017-07-22T08:26:23.655Z,69
2017-07-22T08:27:25.783Z,70
2017-07-22T08:28:27.894Z,69
2017-07-22T08:29:30.352Z,70
2017-07-22T08:30:33.153Z,70
2017-07-22T08:31:35.286Z,69
2017-07-22T08:32:37.406Z,70
2017-07-22T08:33:39.495Z,69
2017-07-22T08:34:41.612Z,70
2017-07-22T08:35:44.425Z,70
2017-07-22T08:36:46.889Z,69
2017-07-22T08:37:49.000Z,69
2017-07-22T08:38:51.438Z,69
2017-07-22T08:39:53.895Z,69
2017-07-22T08:40:56.314Z,70
2017-07-22T08:41:58.426Z,71
2017-07-22T08:43:00.551Z,70
2017-07-22T08:44:02.653Z,71
2017-07-22T08:45:05.783Z,71
2017-07-22T08:46:07.893Z,72
2017-07-22T08:47:10.017Z,71
2017-07-22T08:48:12.130Z,71
2017-07-22T08:49:14.576Z,72
2017-07-22T08:50:16.688Z,72
2017-07-22T08:51:18.791Z,72
2017-07-22T08:52:20.909Z,72
2017-07-22T08:53:23.015Z,72
2017-07-22T08:54:25.112Z,73
2017-07-22T08:55:27.573Z,72
2017-07-22T08:56:29.671Z,73
2017-07-22T08:57:32.126Z,73
2017-07-22T08:58:34.228Z,72
2017-07-22T08:59:36.676Z,72
2017-07-22T09:00:39.162Z,73
2017-07-22T09:01:41.260Z,72
2017-07-22T09:02:43.716Z,73
2017-07-22T09:03:46.153Z,72
2017-07-22T09:04:48.250Z,73
2017-07-22T09:05:51.727Z,73
2017-07-22T09:06:54.071Z,73
2017-07-22T09:07:56.522Z,74
2017-07-22T09:08:58.628Z,75
2017-07-22T09:10:01.072Z,75
2017-07-22T09:11:03.188Z,75
2017-07-22T09:12:05.309Z,75
2017-07-22T09:13:07.750Z,75
2017-07-22T09:14:10.210Z,75
2017-07-22T09:15:12.307Z,75
2017-07-22T09:16:14.429Z,75
2017-07-22T09:17:17.212Z,75
2017-07-22T09:18:19.668Z,76
2017-07-22T09:19:22.154Z,76
2017-07-22T09:20:24.279Z,76
2017-07-22T09:21:26.392Z,77
2017-07-22T09:22:28.511Z,77
2017-07-22T09:23:30.625Z,76
2017-07-22T09:24:32.734Z,76
2017-07-22T09:25:35.183Z,76
2017-07-22T09:26:37.300Z,76
2017-07-22T09:27:39.415Z,75
2017-07-22T09:28:41.837Z,75
2017-07-22T09:29:44.286Z,76
2017-07-22T09:30:46.401Z,76
2017-07-22T09:31:48.504Z,76
2017-07-22T09:32:50.616Z,76
2017-07-22T09:33:52.721Z,75
2017-07-22T09:34:54.814Z,74
2017-07-22T09:35:56.936Z,76
2017-07-22T09:36:59.026Z,75
2017-07-22T09:38:01.159Z,75
2017-07-22T09:39:03.957Z,74
2017-07-22T09:40:06.401Z,74
2017-07-22T09:41:08.512Z,74
2017-07-22T09:42:10.968Z,73
2017-07-22T09:43:13.070Z,72
2017-07-22T09:44:15.211Z,73
2017-07-22T09:45:17.313Z,72
2017-07-22T09:46:19.789Z,72
2017-07-22T09:47:21.923Z,71
2017-07-22T09:48:24.035Z,72
2017-07-22T09:49:26.134Z,72
2017-07-22T09:50:28.586Z,72
2017-07-22T09:51:30.692Z,70
2017-07-22T09:52:33.136Z,70
2017-07-22T09:53:35.246Z,70
2017-07-22T09:54:37.332Z,70
2017-07-22T09:55:39.462Z,70
2017-07-22T09:56:41.570Z,71
2017-07-22T09:57:44.044Z,70
2017-07-22T09:58:46.157Z,69
2017-07-22T09:59:48.273Z,70
2017-07-22T10:00:50.736Z,70
2017-07-22T10:01:53.520Z,71
2017-07-22T10:02:55.632Z,72
2017-07-22T10:03:57.756Z,72
2017-07-22T10:04:59.855Z,72
2017-07-22T10:06:02.309Z,72
2017-07-22T10:07:04.754Z,72
2017-07-22T10:08:06.851Z,72
2017-07-22T10:09:08.963Z,71
2017-07-22T10:10:11.774Z,72
2017-07-22T10:11:13.942Z,73
2017-07-22T10:12:16.045Z,73
2017-07-22T10:13:18.499Z,73
2017-07-22T10:14:20.606Z,74
2017-07-22T10:15:22.725Z,74
2017-07-22T10:16:24.837Z,74
2017-07-22T10:17:27.303Z,74
2017-07-22T10:18:29.425Z,74
2017-07-22T10:19:31.536Z,74
2017-07-22T10:20:33.975Z,74
2017-07-22T10:21:36.084Z,74
2017-07-22T10:22:38.524Z,74
2017-07-22T10:23:40.998Z,75
2017-07-22T10:24:43.468Z,75
2017-07-22T10:25:45.590Z,75
2017-07-22T10:26:48.058Z,75
2017-07-22T10:27:50.182Z,75
2017-07-22T10:28:52.295Z,75
2017-07-22T10:29:54.737Z,75
2017-07-22T10:30:56.855Z,76
2017-07-22T10:31:59.316Z,75
2017-07-22T10:33:01.762Z,74
2017-07-22T10:34:03.870Z,74
2017-07-22T10:35:05.986Z,73
2017-07-22T10:36:08.109Z,73
2017-07-22T10:37:10.200Z,74
2017-07-22T10:38:12.316Z,74
2017-07-22T10:39:14.436Z,72
2017-07-22T10:40:16.892Z,74
2017-07-22T10:41:19.343Z,77
2017-07-22T10:42:21.807Z,75
2017-07-22T10:43:23.917Z,75
2017-07-22T10:44:26.040Z,75
2017-07-22T10:45:28.840Z,75
2017-07-22T10:46:30.961Z,76
2017-07-22T10:47:33.069Z,76
2017-07-22T10:48:35.515Z,78
2017-07-22T10:49:37.962Z,79
2017-07-22T10:50:40.082Z,78
2017-07-22T10:51:42.199Z,79
2017-07-22T10:52:44.654Z,79
2017-07-22T10:53:46.760Z,77
2017-07-22T10:54:48.868Z,78
2017-07-22T10:55:50.986Z,79
2017-07-22T10:56:53.082Z,79
2017-07-22T10:57:55.211Z,80
2017-07-22T10:58:57.349Z,77
2017-07-22T10:59:59.458Z,77
2017-07-22T11:01:01.890Z,79
2017-07-22T11:02:03.999Z,80
2017-07-22T11:03:06.147Z,80
2017-07-22T11:04:08.252Z,80
2017-07-22T11:05:10.350Z,81
2017-07-22T11:06:12.467Z,81
2017-07-22T11:07:14.824Z,82
2017-07-22T11:08:16.962Z,82
2017-07-22T11:09:19.075Z,83
2017-07-22T11:10:21.181Z,83
2017-07-22T11:11:23.635Z,84
2017-07-22T11:12:25.737Z,84
2017-07-22T11:13:28.533Z,84
2017-07-22T11:14:30.999Z,84
2017-07-22T11:15:33.136Z,85
2017-07-22T11:16:35.279Z,84
2017-07-22T11:17:37.409Z,85
2017-07-22T11:18:39.527Z,86
2017-07-22T11:19:42.307Z,86
2017-07-22T11:20:44.413Z,85
2017-07-22T11:21:46.526Z,86
2017-07-22T11:22:48.644Z,87
2017-07-22T11:23:50.746Z,87
2017-07-22T11:24:53.224Z,87
2017-07-22T11:25:55.343Z,87
2017-07-22T11:26:57.793Z,86
2017-07-22T11:27:59.901Z,86
2017-07-22T11:29:02.012Z,86
2017-07-22T11:30:04.129Z,86
2017-07-22T11:31:06.594Z,87
2017-07-22T11:32:08.687Z,88
2017-07-22T11:33:10.790Z,89
2017-07-22T11:34:13.256Z,89
2017-07-22T11:35:15.692Z,87
2017-07-22T11:36:17.814Z,87
2017-07-22T11:37:19.946Z,87
2017-07-22T11:38:22.383Z,87
2017-07-22T11:39:24.490Z,86
2017-07-22T11:40:26.591Z,86
2017-07-22T11:41:28.688Z,87
2017-07-22T11:42:30.791Z,87
2017-07-22T11:43:32.935Z,87
2017-07-22T11:44:35.034Z,88
2017-07-22T11:45:38.148Z,88
2017-07-22T11:46:40.259Z,89
2017-07-22T11:47:42.382Z,89
2017-07-22T11:48:44.829Z,89
2017-07-22T11:49:46.925Z,89
2017-07-22T11:50:49.382Z,90
2017-07-22T11:51:51.487Z,90
2017-07-22T11:52:53.598Z,89
2017-07-22T11:53:55.718Z,90
2017-07-22T11:54:57.822Z,90
2017-07-22T11:56:00.268Z,90
2017-07-22T11:57:03.057Z,90
2017-07-22T11:58:05.155Z,90
2017-07-22T11:59:07.963Z,90
2017-07-22T12:00:10.098Z,91
2017-07-22T12:01:12.626Z,91
2017-07-22T12:02:14.762Z,91
2017-07-22T12:03:16.875Z,91
2017-07-22T12:04:19.349Z,91
2017-07-22T12:05:21.836Z,90
2017-07-22T12:06:23.959Z,91
2017-07-22T12:07:26.116Z,90
2017-07-22T12:08:28.277Z,91
2017-07-22T12:09:30.771Z,91
2017-07-22T12:10:33.237Z,91
2017-07-22T12:11:35.423Z,91
2017-07-22T12:12:37.583Z,90
2017-07-22T12:13:40.077Z,90
2017-07-22T12:14:42.196Z,90
2017-07-22T12:15:44.309Z,90
2017-07-22T12:16:46.790Z,90
2017-07-22T12:17:49.279Z,90
2017-07-22T12:18:51.438Z,90
2017-07-22T12:19:53.945Z,91
2017-07-22T12:20:56.420Z,91
2017-07-22T12:21:58.565Z,91
2017-07-22T12:23:00.730Z,91
2017-07-22T12:24:03.192Z,91
2017-07-22T12:25:05.663Z,91
2017-07-22T12:26:08.124Z,91
2017-07-22T12:27:10.264Z,91
2017-07-22T12:28:12.416Z,91
2017-07-22T12:29:14.873Z,92
2017-07-22T12:30:17.032Z,92
2017-07-22T12:31:19.181Z,92
2017-07-22T12:32:21.305Z,92
2017-07-22T12:33:23.501Z,92
2017-07-22T12:34:25.665Z,92
2017-07-22T12:35:28.152Z,92
2017-07-22T12:36:30.655Z,92
2017-07-22T12:37:33.161Z,92
2017-07-22T12:38:35.631Z,92
2017-07-22T12:39:38.112Z,92
2017-07-22T12:40:40.285Z,92
2017-07-22T12:41:42.436Z,92
2017-07-22T12:42:44.566Z,92
2017-07-22T12:43:47.032Z,92
2017-07-22T12:44:49.522Z,92
2017-07-22T12:45:52.012Z,92
2017-07-22T12:46:54.155Z,92
2017-07-22T12:47:56.286Z,92
2017-07-22T12:48:58.408Z,92
2017-07-22T12:50:00.892Z,92
2017-07-22T12:51:03.050Z,92
2017-07-22T12:52:05.521Z,92
2017-07-22T12:53:07.670Z,92
2017-07-22T12:54:09.819Z,92
2017-07-22T12:55:12.284Z,92
2017-07-22T12:56:14.453Z,92
2017-07-22T12:57:17.195Z,92
2017-07-22T12:58:19.321Z,91
2017-07-22T12:59:21.847Z,91
2017-07-22T13:00:24.015Z,92
2017-07-22T13:01:26.869Z,92
2017-07-22T13:02:29.447Z,91
2017-07-22T13:03:31.971Z,92
2017-07-22T13:04:34.139Z,92
2017-07-22T13:05:36.319Z,92
2017-07-22T13:06:38.470Z,92
2017-07-22T13:07:40.646Z,92
2017-07-22T13:08:43.190Z,92
2017-07-22T13:09:45.350Z,92
2017-07-22T13:10:47.467Z,92
2017-07-22T13:11:49.956Z,91
2017-07-22T13:12:52.080Z,91
2017-07-22T13:13:54.288Z,91
2017-07-22T13:14:56.765Z,91
2017-07-22T13:15:59.597Z,91
2017-07-22T13:17:02.078Z,91
2017-07-22T13:18:04.608Z,92
2017-07-22T13:19:06.771Z,92
2017-07-22T13:20:08.939Z,92
2017-07-22T13:21:11.116Z,92
2017-07-22T13:22:13.264Z,92
2017-07-22T13:23:15.718Z,92
2017-07-22T13:24:17.887Z,92
2017-07-22T13:25:20.397Z,92
2017-07-22T13:26:22.905Z,91
2017-07-22T13:27:25.054Z,91
2017-07-22T13:28:27.199Z,91
2017-07-22T13:29:29.352Z,92
2017-07-22T13:30:31.841Z,92
2017-07-22T13:31:34.339Z,92
2017-07-22T13:32:36.467Z,92
2017-07-22T13:33:38.936Z,92
2017-07-22T13:34:41.083Z,92
2017-07-22T13:35:43.230Z,92
2017-07-22T13:36:45.393Z,92
2017-07-22T13:37:47.561Z,92
2017-07-22T13:38:49.673Z,92
2017-07-22T13:39:51.828Z,92
2017-07-22T13:40:54.646Z,93
2017-07-22T13:41:56.803Z,93
2017-07-22T13:42:59.248Z,93
2017-07-22T13:44:01.387Z,93
2017-07-22T13:45:03.533Z,93
2017-07-22T13:46:06.048Z,93
2017-07-22T13:47:08.152Z,93
2017-07-22T13:48:10.303Z,93
2017-07-22T13:49:12.773Z,93
2017-07-22T13:50:14.897Z,93
2017-07-22T13:51:17.022Z,93
2017-07-22T13:52:19.146Z,93
2017-07-22T13:53:21.982Z,93
2017-07-22T13:54:24.106Z,93
2017-07-22T13:55:26.553Z,93
2017-07-22T13:56:28.698Z,93
2017-07-22T13:57:31.482Z,93
2017-07-22T13:58:33.591Z,93
2017-07-22T13:59:35.691Z,93
2017-07-22T14:00:37.793Z,93
2017-07-22T14:01:39.924Z,93
2017-07-22T14:02:42.019Z,93
2017-07-22T14:03:44.141Z,93
2017-07-22T14:04:46.582Z,93
2017-07-22T14:05:48.707Z,93
2017-07-22T14:06:51.150Z,93
2017-07-22T14:07:53.593Z,93
2017-07-22T14:08:55.715Z,93
2017-07-22T14:09:57.829Z,93
2017-07-22T14:11:00.274Z,93
2017-07-22T14:12:02.715Z,93
2017-07-22T14:13:04.844Z,93
2017-07-22T14:14:07.292Z,94
2017-07-22T14:15:09.399Z,94
2017-07-22T14:16:11.512Z,94
2017-07-22T14:17:13.615Z,94
2017-07-22T14:18:16.051Z,94
2017-07-22T14:19:18.179Z,94
2017-07-22T14:20:20.662Z,94
2017-07-22T14:21:22.788Z,94
2017-07-22T14:22:24.878Z,94
2017-07-22T14:23:26.997Z,94
2017-07-22T14:24:29.128Z,94
2017-07-22T14:25:31.235Z,94
2017-07-22T14:26:33.341Z,94
2017-07-22T14:27:35.443Z,94
2017-07-22T14:28:37.896Z,94
2017-07-22T14:29:40.349Z,93
2017-07-22T14:30:42.809Z,94
2017-07-22T14:31:44.967Z,94
2017-07-22T14:32:47.083Z,94
2017-07-22T14:33:49.212Z,94
2017-07-22T14:34:51.299Z,94
2017-07-22T14:35:53.407Z,94
2017-07-22T14:36:55.540Z,94
2017-07-22T14:37:57.998Z,94
2017-07-22T14:39:00.104Z,94
2017-07-22T14:40:02.213Z,94
2017-07-22T14:41:05.024Z,94
2017-07-22T14:42:07.464Z,94
2017-07-22T14:43:09.573Z,94
2017-07-22T14:44:12.389Z,94
2017-07-22T14:45:15.186Z,94
2017-07-22T14:46:17.299Z,94
2017-07-22T14:47:19.430Z,94